x

South Brooks (46132) Wave Buoy

3:00am - Thu 30th Jul 2015 All times are PDT. -7 hours from GMT.

  • Sig Wave height 6.2ft
  • Peak Period 16s
  • Wind
    22mph, 27mph gusts
  • Sea Temp 59°f
  • Air Temp 60°f
  • Sea Pressure 1021mb
  • South Brooks
  • South Brooks

More Historic Weather Station data

Upgrade to MSW Pro to gain access to the past 30 days of data for over 8000 Wavebouys and Weather Stations around the globe.

Join Pro

Comparision Forecast

View Surf forecast
   
Thu 07/30 3:00am 6ft 16s 22 27 mph 1021mb 59f 60f
2:00am 6ft 15s 25 29 mph 1021.3mb 59f 61f
1:00am 6ft 16s 25 29 mph 1021.2mb 59f 61f
12:00am 6ft 16s 25 29 mph 1021.2mb 60f 61f
Wed 07/29 11:00pm 6ft 16s 25 31 mph 1021.4mb 60f 62f
10:00pm 6ft 16s 25 29 mph 1021.4mb 60f 62f
9:00pm 7ft 17s 22 27 mph 1021.5mb 61f 62f
8:00pm 6ft 9s 25 29 mph 1021.8mb 62f 63f
7:00pm 5.5ft 16s 22 31 mph 1022mb 62f 63f
5:00pm 5.5ft 17s 20 25 mph 1022.9mb 62f 63f
4:00pm 5.5ft 17s 20 25 mph 1023.4mb 62f 62f
3:00pm 5.5ft 16s 20 25 mph 1023.7mb 62f 62f
2:00pm 5.5ft 17s 18 22 mph 1023.7mb 62f 62f
1:00pm 5.5ft 17s 18 22 mph 1023.6mb 62f 62f
12:00pm 5ft 17s 18 20 mph 1023.6mb 62f 62f
11:00am 5ft 17s 16 20 mph 1023.6mb 62f 62f
10:00am 5ft 17s 13 16 mph 1023.7mb 61f 62f
8:00am 5.5ft 10s 13 16 mph 1023.8mb 61f 62f
7:00am 5ft 10s 13 16 mph 1024.1mb 62f 62f
6:00am 5.5ft 18s 11 13 mph 1024mb 62f 62f
5:00am 5.5ft 10s 11 13 mph 1024.1mb 62f 62f
4:00am 6ft 10s 11 13 mph 1024.1mb 62f 62f
3:00am 6.5ft 10s 13
mph
1024.1mb 63f 62f
2:00am 6ft 8s 13 16 mph 1024.3mb 63f 62f
1:00am 6ft 17s 13 16 mph 1024.6mb 63f 62f
12:00am 6.5ft 10s 11 16 mph 1024.7mb 63f 62f
Tue 07/28 11:00pm 6ft 10s 9 11 mph 1024.6mb 63f 62f
10:00pm 6ft 10s 11 13 mph 1024.8mb 63f 62f
9:00pm 6ft 10s 7 11 mph 1024.9mb 63f 61f
8:00pm 6ft 11s 7 9 mph 1025.2mb 63f 62f
7:00pm 5.5ft 10s 9
mph
1025.6mb 63f 62f
6:00pm 5ft 10s 11 13 mph 1025.7mb 64f 61f
5:00pm 5ft 9s 9 11 mph 1025.9mb 64f 63f
4:00pm 5.5ft 10s 7 9 mph 1026.3mb 64f 62f
3:00pm 5ft 10s 7
mph
1026.2mb 64f 62f
2:00pm 5ft 18s 7 9 mph 1026.5mb 64f 62f
1:00pm 5ft 10s 4 7 mph 1026.3mb 64f 61f
12:00pm 5ft 10s 7 9 mph 1026.4mb 63f 61f
11:00am 5ft 9s 7 9 mph 1026.1mb 63f 61f
10:00am 5ft 10s 7 9 mph 1026.1mb 63f 61f
9:00am 5ft 10s 7 9 mph 1026.1mb 62f 62f
8:00am 5ft 8s 9 11 mph 1025.9mb 62f 61f
7:00am 5ft 10s 7 11 mph 1025.7mb 62f 61f
6:00am 4.5ft 10s 2 4 mph 1025.5mb 62f 62f
5:00am 4.5ft 10s 4 7 mph 1025.4mb 62f 61f
4:00am 4.5ft 10s 7 9 mph 1025.5mb 62f 61f
3:00am 5ft 8s 7
mph
1025.4mb 62f 61f
2:00am 4.5ft 9s 7 9 mph 1025.2mb 62f 61f
1:00am 4.5ft 8s 7
mph
1025mb 63f 61f
12:00am 4.5ft 9s 9
mph
1024.9mb 63f 62f
Mon 07/27 11:00pm 4.5ft 10s 9
mph
1024.7mb 63f 62f
10:00pm 4ft 8s 7 9 mph 1024.7mb 63f 61f
9:00pm 4ft 8s 9 11 mph 1024.6mb 63f 62f
8:00pm 3.5ft 9s 9 11 mph 1024.9mb 63f 62f
7:00pm 3.5ft 18s 11 13 mph 1024.8mb 63f 62f
6:00pm 3.5ft 8s 9 11 mph 1024.6mb 63f 63f
5:00pm 3.5ft 8s 11 13 mph 1024.5mb 63f 62f
3:00pm 3.5ft 8s 11 13 mph 1024.2mb 63f 61f
2:00pm 4ft 9s 7 9 mph 1024.1mb 62f 62f
1:00pm 4ft 18s 9 11 mph 1023.9mb 62f 61f
12:00pm 4ft 9s 11
mph
1023.6mb 62f 61f
11:00am 4ft 8s 7 9 mph 1023.3mb 62f 60f
10:00am 4ft 9s 4 7 mph 1022.8mb 62f 60f
8:00am 4.5ft 8s 18 20 mph 1022.6mb 61f 59f
7:00am 4.5ft 9s 18 22 mph 1022.1mb 61f 59f
6:00am 4.5ft 9s 13
mph
1021.8mb 61f 60f
5:00am 4.5ft 8s 16 18 mph 1021.5mb 61f 61f
4:00am 4.5ft 9s 18 20 mph 1021.3mb 61f 60f
3:00am 5ft 9s 18 20 mph 1021.1mb 62f 60f
2:00am 5ft 9s 18 20 mph 1020.8mb 62f 60f
1:00am 5ft 9s 18 22 mph 1020.8mb 62f 60f
12:00am 5ft 8s 18 22 mph 1020.6mb 62f 60f
Sun 07/26 11:00pm 6ft 10s 22 25 mph 1020.3mb 62f 61f
8:00pm 5.5ft 10s 22 27 mph 1019.9mb 62f 61f
7:00pm 5.5ft 10s 22 27 mph 1019.7mb 62f 61f
6:00pm 5ft 10s 22 27 mph 1019.8mb 62f 61f
5:00pm 5ft 9s 22 27 mph 1019.6mb 62f 61f
4:00pm 5ft 8s 20 25 mph 1019.6mb 62f 61f
3:00pm 5.5ft 9s 18 20 mph 1019.6mb 63f 61f
2:00pm 5.5ft 9s 13 18 mph 1019.8mb 63f 61f
1:00pm 6ft 9s 13 16 mph 1019.8mb 62f 61f
12:00pm 5ft 10s 13 16 mph 1019.6mb 62f 60f